Time;durP1;ratioP1;P1;durP2;ratioP2;P2;SDS_P1;SDS_P2;PMS_P1;PMS_P2;Temp;Humidity;BMP_temperature;BMP_pressure;BME280_temperature;BME280_humidity;BME280_pressure;Samples;Min_cycle;Max_cycle;Signal;HPM_P1;HPM_P2
2021/12/10 00:00:21;;;;;;;43.50;18.50;;;;;;;0.34;76.44;99081.27;126496;1310;108718;-78
2021/12/10 00:03:47;;;;;;;40.90;19.30;;;;;;;0.41;76.38;99078.64;126771;1310;108748;-78
2021/12/10 00:06:56;;;;;;;35.90;19.30;;;;;;;0.50;76.35;99083.94;126765;1310;109010;-76
2021/12/10 00:10:08;;;;;;;36.80;18.90;;;;;;;0.52;76.35;99083.06;126832;1310;108793;-77
2021/12/10 00:13:14;;;;;;;36.10;18.40;;;;;;;0.55;76.26;99088.13;126887;1311;108356;-78
2021/12/10 00:16:21;;;;;;;41.70;19.30;;;;;;;0.56;76.34;99094.16;126819;1310;108677;-78
2021/12/10 00:19:32;;;;;;;40.00;19.50;;;;;;;0.53;76.37;99098.06;126850;1310;108875;-76
2021/12/10 00:22:42;;;;;;;46.40;22.70;;;;;;;0.49;76.30;99089.06;126516;1310;108488;-76
2021/12/10 00:25:51;;;;;;;46.80;20.50;;;;;;;0.48;76.38;99081.13;126404;1310;108609;-77
2021/12/10 00:29:02;;;;;;;38.70;18.40;;;;;;;0.44;76.50;99078.77;126377;1310;107208;-79
2021/12/10 00:32:17;;;;;;;42.60;19.10;;;;;;;0.49;76.42;99071.60;126709;1313;108993;-79
2021/12/10 00:35:26;;;;;;;40.00;18.70;;;;;;;0.55;76.39;99066.37;126717;1310;107634;-77
2021/12/10 00:38:33;;;;;;;38.20;19.90;;;;;;;0.59;76.35;99063.59;126738;1311;108710;-77
2021/12/10 00:41:39;;;;;;;36.80;18.40;;;;;;;0.59;76.39;99049.26;126855;1310;109015;-78
2021/12/10 00:44:45;;;;;;;37.30;18.60;;;;;;;0.59;76.32;99045.63;126873;1311;108627;-78
2021/12/10 00:47:51;;;;;;;36.00;18.60;;;;;;;0.55;76.32;99041.69;126572;1314;108824;-79
2021/12/10 00:50:59;;;;;;;43.70;19.10;;;;;;;0.53;76.47;99033.33;126361;1310;108868;-79
2021/12/10 00:54:06;;;;;;;40.10;18.70;;;;;;;0.51;76.49;99029.27;126690;1310;108899;-77
2021/12/10 00:57:13;;;;;;;33.20;15.50;;;;;;;0.53;76.59;99036.45;126339;1310;108888;-77
2021/12/10 01:00:23;;;;;;;40.30;18.80;;;;;;;0.57;76.59;99036.31;126385;1310;108815;-77
2021/12/10 01:03:37;;;;;;;36.80;17.30;;;;;;;0.62;76.70;99039.77;126508;1310;107404;-78
2021/12/10 01:06:46;;;;;;;39.20;18.80;;;;;;;0.66;76.67;99025.66;126613;1311;108613;-77
2021/12/10 01:09:54;;;;;;;41.00;19.60;;;;;;;0.66;76.61;99016.36;126441;1310;108761;-76
2021/12/10 01:13:03;;;;;;;42.10;19.60;;;;;;;0.61;76.64;99015.55;126706;1310;108872;-78
2021/12/10 01:23:42;;;;;;;48.70;22.50;;;;;;;0.56;76.69;99016.83;126371;1310;109053;-77
2021/12/10 01:26:59;;;;;;;38.20;16.70;;;;;;;0.62;76.81;98997.25;125773;1316;108954;-77
2021/12/10 01:30:10;;;;;;;36.40;17.40;;;;;;;0.72;76.85;98995.19;126763;1310;108647;-77
2021/12/10 01:33:18;;;;;;;38.40;17.30;;;;;;;0.79;76.85;98986.77;126872;1310;106939;-77
2021/12/10 01:36:24;;;;;;;41.80;18.30;;;;;;;0.84;76.77;98989.56;126676;1314;108929;-76
2021/12/10 01:39:34;;;;;;;41.90;18.70;;;;;;;0.85;76.81;98991.28;126871;1311;108718;-77
2021/12/10 01:42:45;;;;;;;38.20;18.90;;;;;;;0.81;76.87;98988.06;126883;1310;108738;-78
2021/12/10 01:45:54;;;;;;;42.70;19.30;;;;;;;0.77;76.90;98985.56;126879;1310;107778;-77
2021/12/10 01:49:02;;;;;;;59.00;21.90;;;;;;;0.74;76.93;98987.20;126854;1313;108928;-81
2021/12/10 01:52:09;;;;;;;52.40;21.30;;;;;;;0.72;76.96;98977.42;126375;1310;106790;-80
2021/12/10 01:55:19;;;;;;;44.30;17.50;;;;;;;0.71;77.08;98982.36;126299;1311;108851;-80
2021/12/10 01:58:28;;;;;;;45.20;19.30;;;;;;;0.75;77.12;98982.91;126536;1310;108800;-80
2021/12/10 02:01:40;;;;;;;44.70;18.80;;;;;;;0.79;77.20;98981.90;126329;1310;109015;-79
2021/12/10 02:04:48;;;;;;;46.60;19.80;;;;;;;0.82;77.09;98974.33;126404;1310;107895;-78
2021/12/10 02:07:54;;;;;;;48.00;19.90;;;;;;;0.83;77.08;98964.83;126405;1314;108833;-79
2021/12/10 02:11:00;;;;;;;45.10;20.40;;;;;;;0.83;77.12;98961.33;126474;1310;109130;-79
2021/12/10 02:14:06;;;;;;;57.90;22.70;;;;;;;0.79;77.18;98958.63;126677;1310;108881;-78
2021/12/10 02:17:11;;;;;;;49.60;20.70;;;;;;;0.78;77.20;98952.74;126381;1314;108571;-78
2021/12/10 02:20:21;;;;;;;42.80;17.40;;;;;;;0.82;77.06;98950.86;126406;1310;109052;-78
2021/12/10 02:23:28;;;;;;;49.50;20.30;;;;;;;0.88;77.22;98939.23;126881;1310;108847;-79
2021/12/10 02:26:37;;;;;;;48.70;20.30;;;;;;;0.91;77.37;98941.39;126761;1311;107656;-76
2021/12/10 02:29:43;;;;;;;43.60;18.50;;;;;;;0.92;77.31;98943.39;126496;1310;107574;-76
2021/12/10 02:32:48;;;;;;;50.80;20.40;;;;;;;0.92;77.29;98948.83;126418;1310;108863;-76
2021/12/10 02:35:54;;;;;;;47.20;20.30;;;;;;;0.89;77.36;98947.48;126597;1310;108728;-75
2021/12/10 02:39:00;;;;;;;48.10;20.30;;;;;;;0.88;77.27;98942.86;126859;1310;108754;-75
2021/12/10 02:42:06;;;;;;;60.00;21.50;;;;;;;0.80;77.52;98938.09;126864;1311;108710;-77
2021/12/10 02:45:15;;;;;;;60.80;21.50;;;;;;;0.77;77.57;98935.13;126846;1310;108884;-77
2021/12/10 02:48:21;;;;;;;45.60;18.30;;;;;;;0.77;77.57;98932.16;126868;1310;108640;-78
2021/12/10 02:51:28;;;;;;;48.10;19.10;;;;;;;0.81;77.65;98928.56;126853;1313;109066;-77
2021/12/10 02:54:35;;;;;;;49.90;20.00;;;;;;;0.87;77.48;98928.59;126919;1310;108920;-77
2021/12/10 02:57:42;;;;;;;47.40;19.70;;;;;;;0.89;77.54;98926.64;126732;1310;108449;-76
2021/12/10 03:00:51;;;;;;;45.80;18.50;;;;;;;0.90;77.44;98924.69;126541;1310;107666;-77
2021/12/10 03:03:58;;;;;;;39.30;17.30;;;;;;;0.92;77.44;98918.73;126876;1311;107591;-76
2021/12/10 03:07:11;;;;;;;48.50;20.10;;;;;;;0.89;77.45;98922.64;126847;1310;106881;-77
2021/12/10 03:10:21;;;;;;;47.80;18.60;;;;;;;0.86;77.45;98917.80;126580;1314;107407;-77
2021/12/10 03:13:26;;;;;;;40.40;16.60;;;;;;;0.90;77.58;98914.49;126597;1310;108581;-78
2021/12/10 03:16:32;;;;;;;41.60;16.90;;;;;;;0.94;77.58;98913.11;126405;1313;108789;-80
2021/12/10 03:19:38;;;;;;;39.30;18.10;;;;;;;1.00;77.62;98909.63;126421;1310;108872;-80
2021/12/10 03:22:44;;;;;;;38.50;17.20;;;;;;;1.05;77.53;98909.95;126379;1310;108984;-79
2021/12/10 03:25:50;;;;;;;33.30;15.80;;;;;;;1.07;77.44;98905.42;126386;1310;108862;-80
2021/12/10 03:28:56;;;;;;;35.70;17.10;;;;;;;1.06;77.53;98902.85;126525;1310;108961;-79
2021/12/10 03:32:05;;;;;;;39.90;17.70;;;;;;;1.04;77.39;98903.39;126723;1310;108631;-77
2021/12/10 03:35:14;;;;;;;38.60;17.00;;;;;;;1.01;77.60;98894.02;126707;1310;108806;-80
2021/12/10 03:38:25;;;;;;;37.80;17.00;;;;;;;1.01;77.50;98898.58;126375;1310;109670;-78
2021/12/10 03:41:30;;;;;;;29.70;13.70;;;;;;;1.01;77.51;98893.30;126353;1310;108912;-78
2021/12/10 03:44:36;;;;;;;35.10;16.50;;;;;;;1.03;77.55;98892.95;126437;1310;109848;-80
2021/12/10 03:47:42;;;;;;;39.50;17.30;;;;;;;1.07;77.53;98890.57;126465;1310;108917;-78
2021/12/10 03:50:50;;;;;;;35.00;16.40;;;;;;;1.08;77.61;98887.63;126398;1310;108607;-78
2021/12/10 03:53:55;;;;;;;32.50;16.60;;;;;;;1.09;77.55;98881.09;126732;1310;109025;-78
2021/12/10 03:57:01;;;;;;;35.70;16.50;;;;;;;1.11;77.56;98877.25;126824;1314;108925;-78
2021/12/10 04:00:09;;;;;;;36.70;17.50;;;;;;;1.13;77.67;98874.80;126854;1314;108821;-77
2021/12/10 04:03:17;;;;;;;39.50;20.30;;;;;;;1.11;77.52;98877.91;126707;1310;109253;-77
2021/12/10 04:06:23;;;;;;;39.30;18.10;;;;;;;1.11;77.68;98875.70;126700;1310;108699;-76
2021/12/10 04:09:29;;;;;;;34.60;16.60;;;;;;;1.11;77.68;98869.15;126458;1314;108691;-75
2021/12/10 04:12:35;;;;;;;36.70;19.60;;;;;;;1.18;77.75;98871.91;126371;1310;107003;-75
2021/12/10 04:15:41;;;;;;;33.70;18.00;;;;;;;1.23;77.69;98869.95;126660;1310;108867;-75
2021/12/10 04:18:48;;;;;;;31.10;15.50;;;;;;;1.27;77.59;98865.23;126434;1310;109469;-75
2021/12/10 04:21:56;;;;;;;31.00;16.90;;;;;;;1.29;77.54;98864.55;126687;1310;107086;-75
2021/12/10 04:25:05;;;;;;;31.70;16.70;;;;;;;1.29;77.52;98859.26;126373;1311;108642;-74
2021/12/10 04:28:15;;;;;;;32.30;16.70;;;;;;;1.28;77.57;98856.41;126489;1311;108770;-75
2021/12/10 04:31:20;;;;;;;37.60;18.30;;;;;;;1.26;77.72;98858.70;126624;1310;108948;-74
2021/12/10 04:34:27;;;;;;;37.00;18.10;;;;;;;1.27;77.71;98860.55;126592;1310;108750;-74
2021/12/10 04:37:32;;;;;;;35.80;17.70;;;;;;;1.27;77.70;98864.06;126729;1310;106628;-74
2021/12/10 04:40:38;;;;;;;37.00;17.80;;;;;;;1.29;77.72;98859.96;126544;1310;109695;-72
2021/12/10 04:43:47;;;;;;;30.70;16.40;;;;;;;1.34;77.63;98859.77;126356;1311;108656;-75
2021/12/10 04:46:52;;;;;;;31.70;16.10;;;;;;;1.37;77.64;98858.08;126513;1316;107186;-74
2021/12/10 04:49:58;;;;;;;29.90;15.20;;;;;;;1.38;77.65;98860.26;126491;1310;108781;-74
2021/12/10 04:53:08;;;;;;;30.40;15.70;;;;;;;1.37;77.54;98854.89;126377;1314;108783;-74
2021/12/10 04:56:14;;;;;;;27.80;15.30;;;;;;;1.33;77.55;98849.89;126576;1310;107859;-74
2021/12/10 04:59:20;;;;;;;35.90;17.50;;;;;;;1.30;77.63;98859.55;126800;1310;108652;-75
2021/12/10 05:02:27;;;;;;;37.90;17.50;;;;;;;1.28;77.71;98865.83;126776;1310;107046;-75
2021/12/10 05:05:33;;;;;;;32.90;15.70;;;;;;;1.29;77.66;98862.08;126532;1310;108796;-76
2021/12/10 05:08:40;;;;;;;38.10;17.20;;;;;;;1.30;77.68;98854.46;126862;1311;108015;-75
2021/12/10 05:11:46;;;;;;;32.70;16.80;;;;;;;1.35;77.67;98853.71;126823;1310;108768;-75
2021/12/10 05:14:59;;;;;;;34.70;17.30;;;;;;;1.38;77.72;98855.91;126514;1310;108761;-75
2021/12/10 05:18:06;;;;;;;34.00;17.60;;;;;;;1.42;77.74;98867.46;126656;1309;108960;-75
2021/12/10 05:21:14;;;;;;;41.40;20.40;;;;;;;1.43;77.55;98855.31;126607;1311;107099;-75
2021/12/10 05:24:22;;;;;;;39.70;19.40;;;;;;;1.41;77.65;98851.81;126526;1310;108736;-75
2021/12/10 05:27:27;;;;;;;41.70;20.80;;;;;;;1.37;77.69;98849.46;126601;1310;108977;-73
2021/12/10 05:30:34;;;;;;;45.80;21.90;;;;;;;1.36;77.68;98857.15;126514;1310;108930;-75
2021/12/10 05:33:40;;;;;;;36.50;18.50;;;;;;;1.36;77.79;98855.95;126936;1310;108725;-73
2021/12/10 05:36:46;;;;;;;39.10;20.50;;;;;;;1.37;77.78;98853.52;126957;1310;106640;-76
2021/12/10 05:39:51;;;;;;;35.90;19.60;;;;;;;1.41;77.79;98858.29;126943;1311;108915;-77
2021/12/10 05:42:56;;;;;;;34.20;19.30;;;;;;;1.45;77.79;98855.64;126979;1310;108900;-77
2021/12/10 05:46:02;;;;;;;33.30;18.30;;;;;;;1.46;77.75;98851.37;126934;1310;108906;-77
2021/12/10 05:49:08;;;;;;;30.90;17.10;;;;;;;1.46;77.73;98852.48;126583;1310;108973;-77
2021/12/10 05:52:14;;;;;;;30.40;17.20;;;;;;;1.44;77.75;98851.36;126733;1310;108801;-76
2021/12/10 05:55:21;;;;;;;33.90;17.40;;;;;;;1.42;77.84;98852.60;126481;1310;108802;-76
2021/12/10 05:58:26;;;;;;;33.60;17.20;;;;;;;1.41;77.85;98849.23;126415;1310;108622;-77
2021/12/10 06:01:32;;;;;;;27.90;13.80;;;;;;;1.40;77.81;98854.00;126677;1310;109162;-76
2021/12/10 06:04:38;;;;;;;28.70;14.90;;;;;;;1.47;77.94;98860.43;126822;1314;106953;-77
2021/12/10 06:07:43;;;;;;;27.20;14.30;;;;;;;1.52;77.89;98849.33;126821;1311;108936;-77
2021/12/10 06:10:49;;;;;;;26.70;15.00;;;;;;;1.56;77.90;98852.29;126660;1310;109050;-76
2021/12/10 06:13:56;;;;;;;25.60;14.60;;;;;;;1.60;77.79;98857.79;126843;1310;108965;-76
2021/12/10 06:17:01;;;;;;;27.50;14.10;;;;;;;1.60;77.89;98856.17;126781;1310;109016;-76
2021/12/10 06:20:10;;;;;;;25.40;14.20;;;;;;;1.58;77.82;98847.73;126792;1310;108943;-76
2021/12/10 06:23:16;;;;;;;24.50;13.80;;;;;;;1.55;77.86;98834.52;126528;1310;108892;-76
2021/12/10 06:26:22;;;;;;;28.10;14.10;;;;;;;1.52;77.83;98835.45;126508;1310;108755;-76
2021/12/10 06:29:28;;;;;;;22.60;11.90;;;;;;;1.52;77.88;98834.36;126366;1310;107254;-77
2021/12/10 06:32:33;;;;;;;22.90;12.80;;;;;;;1.55;77.94;98838.70;126800;1310;108791;-76
2021/12/10 06:35:40;;;;;;;21.70;12.60;;;;;;;1.62;78.01;98839.90;126725;1311;107419;-78
2021/12/10 06:38:46;;;;;;;22.20;13.20;;;;;;;1.65;77.91;98827.48;126672;1310;108827;-77
2021/12/10 06:41:54;;;;;;;24.90;13.30;;;;;;;1.66;77.92;98828.48;127083;1311;109282;-76
2021/12/10 06:45:00;;;;;;;25.00;13.10;;;;;;;1.66;77.94;98835.65;126979;1311;107610;-76
2021/12/10 06:48:09;;;;;;;23.90;13.40;;;;;;;1.66;77.91;98843.71;126941;1310;108680;-77
2021/12/10 06:51:19;;;;;;;28.30;15.00;;;;;;;1.63;77.91;98836.30;126974;1310;108849;-77
2021/12/10 06:54:24;;;;;;;27.30;13.90;;;;;;;1.62;78.01;98839.39;126770;1311;109004;-77
2021/12/10 06:57:30;;;;;;;23.10;13.20;;;;;;;1.64;78.12;98838.80;126931;1311;108756;-76
2021/12/10 07:00:41;;;;;;;24.10;13.60;;;;;;;1.72;78.11;98839.75;127043;1310;109197;-76
2021/12/10 07:03:47;;;;;;;24.40;14.10;;;;;;;1.77;77.99;98835.09;126916;1311;108963;-77
2021/12/10 07:06:53;;;;;;;23.90;13.80;;;;;;;1.79;77.99;98833.73;126617;1311;108913;-75
2021/12/10 07:09:59;;;;;;;24.50;13.60;;;;;;;1.84;77.96;98841.64;126628;1310;107150;-75
2021/12/10 07:13:07;;;;;;;24.70;14.40;;;;;;;1.86;77.98;98848.47;126477;1311;108839;-77
2021/12/10 07:16:13;;;;;;;25.60;14.20;;;;;;;1.86;77.94;98851.82;126526;1311;108983;-76
2021/12/10 07:19:19;;;;;;;26.00;13.70;;;;;;;1.87;77.91;98849.31;126500;1309;108706;-77
2021/12/10 07:22:24;;;;;;;23.20;13.10;;;;;;;1.87;77.92;98854.91;126483;1310;108990;-77
2021/12/10 07:25:30;;;;;;;19.30;10.40;;;;;;;1.89;78.05;98855.56;126624;1310;108873;-77
2021/12/10 07:28:35;;;;;;;20.50;11.10;;;;;;;1.93;77.97;98851.77;126603;1310;108761;-77
2021/12/10 07:31:43;;;;;;;20.20;11.30;;;;;;;2.00;78.02;98853.67;126821;1311;107218;-77
2021/12/10 07:34:49;;;;;;;19.00;11.00;;;;;;;2.06;77.95;98856.74;126458;1311;160510;-77
2021/12/10 07:37:54;;;;;;;18.80;11.10;;;;;;;2.10;77.90;98861.33;126583;1310;108541;-77
2021/12/10 07:41:00;;;;;;;20.10;12.30;;;;;;;2.14;77.95;98861.37;126940;1314;107876;-76
2021/12/10 07:44:06;;;;;;;23.00;13.10;;;;;;;2.15;77.89;98853.00;126907;1311;108689;-76
2021/12/10 07:47:14;;;;;;;27.60;16.20;;;;;;;2.15;77.86;98848.33;126902;1310;108696;-77
2021/12/10 07:50:23;;;;;;;30.90;18.00;;;;;;;2.18;77.93;98842.27;126859;1310;108724;-77
2021/12/10 07:53:30;;;;;;;22.40;13.00;;;;;;;2.25;77.91;98838.99;126972;1310;108842;-77
2021/12/10 07:56:36;;;;;;;25.40;15.00;;;;;;;2.34;77.92;98835.35;126900;1310;108812;-76
2021/12/10 07:59:41;;;;;;;24.60;14.10;;;;;;;2.43;77.81;98845.84;126741;1310;108805;-76
2021/12/10 08:02:48;;;;;;;24.70;14.60;;;;;;;2.50;77.72;98852.37;126584;1311;108735;-77
2021/12/10 08:05:54;;;;;;;48.00;31.40;;;;;;;2.58;77.67;98859.98;126927;1311;108697;-77
2021/12/10 08:08:59;;;;;;;38.00;24.60;;;;;;;2.61;77.74;98859.48;126906;1311;106760;-77
2021/12/10 08:12:06;;;;;;;57.00;38.50;;;;;;;2.65;77.63;98859.34;126568;1311;108773;-77
2021/12/10 08:15:12;;;;;;;95.50;49.00;;;;;;;2.68;77.72;98863.78;126490;1310;109086;-77
2021/12/10 08:18:18;;;;;;;47.50;26.50;;;;;;;2.73;77.74;98856.16;126516;1310;108942;-78
2021/12/10 08:21:24;;;;;;;35.60;19.30;;;;;;;2.78;77.72;98855.70;126965;1311;110228;-78
2021/12/10 08:24:29;;;;;;;41.30;21.40;;;;;;;2.87;77.48;98848.73;126950;1310;108663;-78
2021/12/10 08:27:37;;;;;;;43.60;25.60;;;;;;;2.97;77.48;98842.95;126768;1311;108965;-76
2021/12/10 08:30:44;;;;;;;43.70;24.50;;;;;;;3.07;77.36;98845.13;126484;1311;108564;-77
2021/12/10 08:33:50;;;;;;;43.00;26.30;;;;;;;3.18;77.31;98848.42;126665;1310;108889;-76
2021/12/10 08:36:55;;;;;;;33.80;19.90;;;;;;;3.25;77.13;98854.13;126488;1311;108765;-76
2021/12/10 08:40:00;;;;;;;35.90;19.80;;;;;;;3.27;77.04;98854.10;126515;1311;108933;-76
2021/12/10 08:43:06;;;;;;;30.50;17.30;;;;;;;3.33;77.13;98857.75;126491;1310;106799;-77
2021/12/10 08:46:13;;;;;;;28.70;16.80;;;;;;;3.45;77.11;98864.71;126475;1311;108392;-77
2021/12/10 08:49:19;;;;;;;29.30;15.90;;;;;;;3.51;76.74;98858.02;126602;1311;109004;-77
2021/12/10 08:52:25;;;;;;;28.00;15.20;;;;;;;3.43;76.83;98865.09;126869;1310;107502;-78
2021/12/10 08:55:32;;;;;;;28.80;16.70;;;;;;;3.36;76.83;98867.52;126582;1311;109271;-77
2021/12/10 08:58:38;;;;;;;30.90;17.30;;;;;;;3.32;76.67;98873.80;126785;1310;108897;-76
2021/12/10 09:01:47;;;;;;;33.80;19.50;;;;;;;3.25;76.43;98883.85;126921;1310;108959;-76
2021/12/10 09:04:52;;;;;;;66.20;33.50;;;;;;;3.12;76.40;98879.38;126846;1310;108859;-77
2021/12/10 09:07:59;;;;;;;46.90;25.00;;;;;;;3.02;76.39;98873.75;126514;1310;108971;-77
2021/12/10 09:11:04;;;;;;;49.10;25.00;;;;;;;2.97;76.64;98878.55;126922;1310;108836;-77
2021/12/10 09:14:10;;;;;;;33.30;19.00;;;;;;;2.98;76.54;98865.19;126580;1310;108802;-77
2021/12/10 09:17:21;;;;;;;37.30;20.30;;;;;;;3.00;76.56;98869.58;126526;1311;109076;-77
2021/12/10 09:20:31;;;;;;;38.50;21.50;;;;;;;3.01;76.57;98868.23;126474;1313;108709;-75
2021/12/10 09:23:37;;;;;;;39.90;20.50;;;;;;;2.99;76.44;98873.13;126844;1311;108924;-78
2021/12/10 09:26:47;;;;;;;33.50;19.40;;;;;;;3.04;76.60;98872.00;126897;1310;106993;-76
2021/12/10 09:29:59;;;;;;;36.70;20.90;;;;;;;3.15;76.62;98874.83;126798;1314;108896;-77
2021/12/10 09:33:05;;;;;;;31.50;19.30;;;;;;;3.24;76.26;98872.77;126665;1310;108748;-77
2021/12/10 09:36:12;;;;;;;33.60;18.80;;;;;;;3.26;76.04;98870.86;126975;1311;108741;-77
2021/12/10 09:39:19;;;;;;;32.10;18.60;;;;;;;3.27;76.00;98873.80;126999;1310;107607;-77
2021/12/10 09:42:25;;;;;;;33.60;19.00;;;;;;;3.28;76.04;98879.35;126938;1314;108986;-76
2021/12/10 09:45:34;;;;;;;34.40;19.00;;;;;;;3.26;75.95;98876.63;126940;1310;108747;-77
2021/12/10 09:48:41;;;;;;;36.50;19.90;;;;;;;3.24;75.93;98869.27;126910;1314;108829;-77
2021/12/10 09:51:50;;;;;;;35.90;20.80;;;;;;;3.23;75.79;98866.09;126823;1311;108859;-77
2021/12/10 09:54:56;;;;;;;35.40;19.80;;;;;;;3.15;75.94;98867.62;126770;1311;108847;-77
2021/12/10 09:58:03;;;;;;;34.40;19.10;;;;;;;3.07;75.81;98878.02;126623;1310;108812;-77
2021/12/10 10:01:18;;;;;;;33.50;19.40;;;;;;;3.03;76.01;98879.45;126562;1313;108697;-77
2021/12/10 10:04:27;;;;;;;34.70;19.40;;;;;;;3.05;75.91;98876.77;126827;1310;109006;-77
2021/12/10 10:07:33;;;;;;;33.40;19.80;;;;;;;3.12;75.88;98880.73;126750;1311;106740;-77
2021/12/10 10:10:41;;;;;;;36.60;20.70;;;;;;;3.18;75.73;98886.93;126951;1314;108554;-76
2021/12/10 10:13:50;;;;;;;37.40;20.80;;;;;;;3.25;75.79;98885.43;126892;1311;108874;-77
2021/12/10 10:16:57;;;;;;;35.70;21.00;;;;;;;3.28;75.76;98886.17;126579;1313;108427;-77
2021/12/10 10:20:02;;;;;;;35.50;21.00;;;;;;;3.27;75.39;98884.33;126593;1310;108769;-77
2021/12/10 10:23:08;;;;;;;39.80;22.20;;;;;;;3.22;75.79;98882.71;126536;1310;108877;-77
2021/12/10 10:26:18;;;;;;;40.80;23.90;;;;;;;3.18;75.63;98875.31;126667;1310;109119;-76
2021/12/10 10:29:27;;;;;;;43.80;23.10;;;;;;;3.14;75.56;98868.29;126686;1311;109713;-76
2021/12/10 10:32:35;;;;;;;44.00;24.60;;;;;;;3.16;75.72;98869.86;126554;1311;108922;-77
2021/12/10 10:35:45;;;;;;;45.90;26.00;;;;;;;3.25;75.70;98873.25;126639;1314;108759;-77
2021/12/10 10:38:54;;;;;;;44.00;24.60;;;;;;;3.28;75.38;98873.55;126537;1311;108923;-77
2021/12/10 10:42:01;;;;;;;46.00;27.40;;;;;;;3.30;75.39;98876.48;126478;1313;108724;-77
2021/12/10 10:45:10;;;;;;;52.20;28.00;;;;;;;3.29;75.15;98864.57;126841;1314;108830;-77
2021/12/10 10:48:18;;;;;;;54.00;32.60;;;;;;;3.24;75.30;98875.24;126820;1310;108928;-75
2021/12/10 10:51:34;;;;;;;55.10;30.90;;;;;;;3.25;75.28;98881.98;126853;1311;109990;-77
2021/12/10 10:54:39;;;;;;;55.80;30.90;;;;;;;3.27;75.20;98876.10;126984;1313;108864;-76
2021/12/10 10:57:53;;;;;;;56.50;30.60;;;;;;;3.27;75.11;98875.90;126883;1311;108780;-76
2021/12/10 11:01:04;;;;;;;52.70;29.20;;;;;;;3.26;75.11;98875.25;126912;1310;108909;-77
2021/12/10 11:04:16;;;;;;;51.80;27.90;;;;;;;3.27;75.05;98877.81;126557;1310;108715;-77
2021/12/10 11:07:26;;;;;;;52.90;28.20;;;;;;;3.28;75.26;98880.51;126826;1311;108487;-78
2021/12/10 11:10:35;;;;;;;42.70;24.30;;;;;;;3.32;75.12;98871.24;126928;1310;108761;-77
2021/12/10 11:13:41;;;;;;;48.20;26.00;;;;;;;3.37;75.12;98885.19;126483;1311;108831;-78
2021/12/10 11:16:49;;;;;;;51.60;26.60;;;;;;;3.42;74.98;98879.38;126886;1313;109079;-77
2021/12/10 11:19:57;;;;;;;50.10;26.50;;;;;;;3.43;74.85;98883.24;126742;1310;107679;-78
2021/12/10 11:23:06;;;;;;;45.60;24.50;;;;;;;3.39;74.85;98887.58;126795;1310;108819;-77
2021/12/10 11:26:12;;;;;;;40.60;22.40;;;;;;;3.29;74.73;98875.38;126955;1314;108638;-77
2021/12/10 11:29:40;;;;;;;45.50;23.60;;;;;;;3.21;74.73;98888.54;126887;1310;108754;-77
2021/12/10 11:32:48;;;;;;;45.80;25.10;;;;;;;3.11;74.77;98887.54;127012;1310;108799;-77
2021/12/10 11:35:57;;;;;;;45.40;25.60;;;;;;;3.02;74.88;98887.59;126749;1311;108390;-76
2021/12/10 11:39:03;;;;;;;45.60;23.30;;;;;;;2.93;74.77;98891.11;126519;1310;107429;-77
2021/12/10 11:42:37;;;;;;;53.60;28.70;;;;;;;2.90;74.95;98886.24;126861;1314;108705;-77
2021/12/10 11:45:50;;;;;;;45.10;21.90;;;;;;;2.86;74.92;98875.36;126977;1311;108525;-77
2021/12/10 11:49:08;;;;;;;46.50;24.00;;;;;;;2.95;75.00;98868.23;126914;1313;108611;-77
2021/12/10 11:52:20;;;;;;;52.80;26.60;;;;;;;3.02;74.92;98883.95;126935;1313;109036;-77
2021/12/10 11:55:26;;;;;;;47.00;25.10;;;;;;;3.02;74.90;98891.31;126658;1314;108842;-77
2021/12/10 11:58:32;;;;;;;48.30;25.30;;;;;;;3.01;74.80;98885.63;126743;1313;109168;-77
2021/12/10 12:01:51;;;;;;;50.20;27.20;;;;;;;3.00;74.93;98901.13;126981;1313;108848;-77
2021/12/10 12:05:00;;;;;;;49.90;26.40;;;;;;;2.95;74.86;98897.58;126897;1311;108982;-77
2021/12/10 12:08:08;;;;;;;56.00;27.70;;;;;;;2.91;74.85;98876.66;126735;1310;108885;-78
2021/12/10 12:11:14;;;;;;;49.70;25.40;;;;;;;2.86;74.89;98877.63;126932;1310;108600;-77
2021/12/10 12:14:29;;;;;;;48.30;24.60;;;;;;;2.84;74.96;98880.13;126927;1311;107791;-77
2021/12/10 12:17:38;;;;;;;43.40;22.90;;;;;;;2.86;75.02;98899.08;127002;1311;107515;-77
2021/12/10 12:20:48;;;;;;;46.10;23.80;;;;;;;2.93;74.93;98899.66;126956;1310;107737;-78
2021/12/10 12:27:30;;;;;;;46.60;23.10;;;;;;;2.98;74.55;98897.84;126837;1314;106827;-76
2021/12/10 12:30:49;;;;;;;42.90;22.90;;;;;;;2.92;74.36;98900.80;126591;1310;108943;-77
2021/12/10 12:34:04;;;;;;;42.90;22.80;;;;;;;2.86;74.56;98897.90;126477;1313;106558;-77
2021/12/10 12:37:11;;;;;;;43.60;23.30;;;;;;;2.79;74.54;98897.77;126472;1313;108843;-77
2021/12/10 12:40:17;;;;;;;49.00;25.70;;;;;;;2.74;74.59;98894.70;126656;1311;108911;-77
2021/12/10 12:43:22;;;;;;;52.30;25.90;;;;;;;2.69;74.71;98900.90;126653;1310;109240;-77
2021/12/10 12:46:28;;;;;;;50.90;25.50;;;;;;;2.64;74.57;98903.11;126676;1313;108818;-76
2021/12/10 12:49:52;;;;;;;50.00;25.70;;;;;;;2.60;74.54;98901.72;126448;1316;108641;-77
2021/12/10 12:53:03;;;;;;;51.70;27.00;;;;;;;2.59;74.57;98890.58;126571;1314;109103;-77
2021/12/10 12:56:11;;;;;;;50.60;25.20;;;;;;;2.62;74.72;98891.77;126797;1310;108767;-77
2021/12/10 12:59:17;;;;;;;49.80;25.50;;;;;;;2.63;74.64;98888.61;126530;1317;108907;-77
2021/12/10 13:02:26;;;;;;;47.90;24.10;;;;;;;2.69;74.52;98893.91;126428;1317;107011;-77
2021/12/10 13:05:41;;;;;;;52.80;26.60;;;;;;;2.70;74.52;98896.99;126511;1310;108896;-77
2021/12/10 13:08:55;;;;;;;49.00;25.80;;;;;;;2.69;74.46;98887.88;126549;1310;109009;-76
2021/12/10 13:12:06;;;;;;;49.10;25.00;;;;;;;2.69;74.32;98884.43;126465;1311;108800;-76
2021/12/10 13:15:15;;;;;;;49.60;25.50;;;;;;;2.66;74.33;98882.23;126663;1310;108970;-76
2021/12/10 13:18:22;;;;;;;48.50;24.30;;;;;;;2.61;74.26;98884.30;126737;1313;108851;-77
2021/12/10 13:21:30;;;;;;;48.40;24.60;;;;;;;2.58;74.29;98881.73;127003;1310;106765;-78
2021/12/10 13:24:37;;;;;;;55.40;27.40;;;;;;;2.51;74.25;98884.63;126745;1313;108597;-79
2021/12/10 13:27:42;;;;;;;55.40;26.20;;;;;;;2.44;74.20;98882.56;126991;1310;108799;-80
2021/12/10 13:30:52;;;;;;;42.90;20.50;;;;;;;2.39;74.16;98881.13;126868;1314;107924;-80
2021/12/10 13:33:58;;;;;;;47.00;23.70;;;;;;;2.39;74.36;98875.67;126980;1310;107813;-77
2021/12/10 13:37:07;;;;;;;45.70;23.40;;;;;;;2.45;74.27;98881.63;126899;1313;108652;-79
2021/12/10 13:40:15;;;;;;;56.50;27.20;;;;;;;2.51;74.23;98880.55;126949;1313;108774;-78
2021/12/10 13:43:21;;;;;;;60.40;27.10;;;;;;;2.57;74.13;98880.23;126887;1311;108870;-78
2021/12/10 13:46:32;;;;;;;51.10;24.80;;;;;;;2.56;73.92;98880.98;126795;1310;108914;-79
2021/12/10 13:49:53;;;;;;;55.40;26.60;;;;;;;2.54;73.98;98882.41;126894;1314;108724;-79
2021/12/10 13:53:03;;;;;;;44.10;23.50;;;;;;;2.54;73.89;98889.10;126675;1314;108179;-79
2021/12/10 13:56:12;;;;;;;46.40;24.10;;;;;;;2.52;73.90;98885.72;126713;1309;108980;-78
2021/12/10 13:59:23;;;;;;;46.00;23.20;;;;;;;2.49;73.90;98889.05;126595;1314;108945;-76
2021/12/10 14:02:37;;;;;;;49.70;25.30;;;;;;;2.38;73.93;98893.98;126921;1314;108882;-78
2021/12/10 14:05:44;;;;;;;60.60;29.50;;;;;;;2.30;73.95;98896.94;126988;1313;109046;-79
2021/12/10 14:09:15;;;;;;;40.70;20.60;;;;;;;2.28;74.04;98899.05;127029;1310;108691;-79
2021/12/10 14:12:30;;;;;;;39.30;20.80;;;;;;;2.30;74.03;98902.08;126981;1314;107601;-78
2021/12/10 14:15:44;;;;;;;39.20;20.50;;;;;;;2.33;73.93;98913.20;127033;1311;108609;-78
2021/12/10 14:18:49;;;;;;;41.40;21.30;;;;;;;2.34;74.06;98911.20;126662;1311;107344;-78
2021/12/10 14:21:55;;;;;;;40.50;21.90;;;;;;;2.35;74.05;98906.54;126647;1313;109013;-82
2021/12/10 14:25:01;;;;;;;41.20;21.90;;;;;;;2.36;73.97;98909.55;126710;1314;108560;-77